createdAt,value
2022-11-16T00:00:10.719Z,98231.02
2022-11-16T00:02:58.632Z,98227.50
2022-11-16T00:05:28.592Z,98226.04
2022-11-16T00:07:59.395Z,98220.52
2022-11-16T00:10:29.370Z,98213.89
2022-11-16T00:12:57.381Z,98210.77
2022-11-16T00:15:25.378Z,98210.83
2022-11-16T00:17:53.326Z,98211.31
2022-11-16T00:20:21.358Z,98209.75
2022-11-16T00:22:49.363Z,98208.55
2022-11-16T00:25:17.361Z,98207.76
2022-11-16T00:27:45.348Z,98202.99
2022-11-16T00:30:14.569Z,98200.52
2022-11-16T00:32:42.565Z,98197.67
2022-11-16T00:35:11.249Z,98197.97
2022-11-16T00:37:39.288Z,98193.69
2022-11-16T00:40:08.982Z,98189.51
2022-11-16T00:42:36.974Z,98192.64
2022-11-16T00:45:07.067Z,98196.07
2022-11-16T00:47:35.135Z,98197.49
2022-11-16T00:50:03.239Z,98194.80
2022-11-16T00:52:32.215Z,98193.39
2022-11-16T00:55:01.144Z,98191.02
2022-11-16T00:57:29.148Z,98191.63
2022-11-16T00:59:57.115Z,98191.20
2022-11-16T01:02:25.098Z,98191.76
2022-11-16T01:04:53.102Z,98190.45
2022-11-16T01:07:21.172Z,98187.90
2022-11-16T01:09:49.691Z,98187.41
2022-11-16T01:12:17.712Z,98183.98
2022-11-16T01:14:47.993Z,98178.05
2022-11-16T01:17:16.027Z,98174.61
2022-11-16T01:19:44.085Z,98173.90
2022-11-16T01:22:12.131Z,98169.71
2022-11-16T01:24:40.217Z,98167.89
2022-11-16T01:27:08.274Z,98167.56
2022-11-16T01:29:37.652Z,98165.84
2022-11-16T01:32:07.659Z,98166.76
2022-11-16T01:34:37.103Z,98165.23
2022-11-16T01:37:05.211Z,98164.29
2022-11-16T01:39:33.246Z,98157.73
2022-11-16T01:42:01.309Z,98154.35
2022-11-16T01:44:32.091Z,98153.39
2022-11-16T01:47:06.635Z,98154.06
2022-11-16T01:49:37.458Z,98154.77
2022-11-16T01:52:12.813Z,98157.86
2022-11-16T01:54:45.585Z,98161.39
2022-11-16T01:57:20.711Z,98162.05
2022-11-16T01:59:54.204Z,98163.17
2022-11-16T02:02:23.217Z,98162.48
2022-11-16T02:04:56.024Z,98164.86
2022-11-16T02:07:26.937Z,98158.42
2022-11-16T02:10:21.101Z,98159.05
2022-11-16T02:13:08.625Z,98154.12
2022-11-16T02:15:56.229Z,98149.50
2022-11-16T02:18:53.733Z,98141.84
2022-11-16T02:21:46.392Z,98136.80
2022-11-16T02:24:34.035Z,98128.02
2022-11-16T02:27:23.934Z,98127.95
2022-11-16T02:29:56.719Z,98121.52
2022-11-16T02:32:34.949Z,98119.64
2022-11-16T02:35:19.386Z,98117.17
2022-11-16T02:37:57.499Z,98112.42
2022-11-16T02:40:30.971Z,98111.39
2022-11-16T02:43:09.290Z,98111.14
2022-11-16T02:45:42.990Z,98109.82
2022-11-16T02:48:20.149Z,98114.09
2022-11-16T02:50:52.896Z,98113.84
2022-11-16T02:53:25.230Z,98110.48
2022-11-16T02:55:53.323Z,98108.77
2022-11-16T02:58:25.360Z,98106.12
2022-11-16T03:01:07.805Z,98108.21
2022-11-16T03:03:47.057Z,98114.00
2022-11-16T03:06:27.374Z,98113.06
2022-11-16T03:09:03.790Z,98108.61
2022-11-16T03:12:00.012Z,98108.54
2022-11-16T03:15:02.271Z,98103.73
2022-11-16T03:17:42.182Z,98098.52
2022-11-16T03:20:27.106Z,98091.34
2022-11-16T03:23:02.394Z,98084.21
2022-11-16T03:25:40.176Z,98077.88
2022-11-16T03:28:36.898Z,98074.04
2022-11-16T03:31:14.603Z,98069.56
2022-11-16T03:33:52.947Z,98064.49
2022-11-16T03:36:31.535Z,98066.41
2022-11-16T03:39:05.338Z,98065.76
2022-11-16T03:41:38.203Z,98063.30
2022-11-16T03:44:09.017Z,98062.84
2022-11-16T03:46:38.740Z,98062.92
2022-11-16T03:49:07.575Z,98059.07
2022-11-16T03:51:36.265Z,98052.98
2022-11-16T03:54:05.303Z,98054.59
2022-11-16T03:56:33.071Z,98055.70
2022-11-16T03:59:00.976Z,98055.25
2022-11-16T04:01:29.179Z,98055.13
2022-11-16T04:03:57.359Z,98050.80
2022-11-16T04:06:44.200Z,98046.77
2022-11-16T04:09:24.027Z,98045.23
2022-11-16T04:12:10.468Z,98040.23
2022-11-16T04:14:58.185Z,98036.90
2022-11-16T04:17:46.692Z,98036.06
2022-11-16T04:20:34.944Z,98032.89
2022-11-16T04:23:31.207Z,98028.39
2022-11-16T04:26:00.657Z,98021.81
2022-11-16T04:28:32.072Z,98015.52
2022-11-16T04:31:23.406Z,98014.17
2022-11-16T04:34:11.492Z,98014.73
2022-11-16T04:36:58.083Z,98011.66
2022-11-16T04:39:25.815Z,98003.99
2022-11-16T04:42:12.169Z,98002.30
2022-11-16T04:44:58.926Z,98005.21
2022-11-16T04:47:27.750Z,98002.92
2022-11-16T04:49:55.735Z,97998.52
2022-11-16T04:52:23.668Z,97995.04
2022-11-16T04:54:51.840Z,97995.28
2022-11-16T04:57:19.552Z,97995.40
2022-11-16T04:59:47.339Z,97993.83
2022-11-16T05:02:16.519Z,97992.10
2022-11-16T05:04:45.464Z,97992.02
2022-11-16T05:07:15.551Z,97993.00
2022-11-16T05:09:47.813Z,97997.68
2022-11-16T05:12:26.114Z,97998.16
2022-11-16T05:14:56.020Z,97999.91
2022-11-16T05:17:27.230Z,97995.80
2022-11-16T05:20:13.858Z,97998.85
2022-11-16T05:22:43.643Z,98002.11
2022-11-16T05:25:12.726Z,98000.05
2022-11-16T05:27:40.556Z,97997.23
2022-11-16T05:30:11.363Z,97996.02
2022-11-16T05:32:39.101Z,97993.91
2022-11-16T05:35:08.437Z,97994.27
2022-11-16T05:37:36.500Z,97993.14
2022-11-16T05:40:05.825Z,97990.23
2022-11-16T05:42:33.558Z,97988.56
2022-11-16T05:45:02.674Z,97989.95
2022-11-16T05:47:30.454Z,97990.02
2022-11-16T05:49:58.181Z,97985.00
2022-11-16T05:52:26.170Z,97989.15
2022-11-16T05:54:54.145Z,97988.88
2022-11-16T05:57:22.132Z,97987.74
2022-11-16T05:59:51.155Z,97988.06
2022-11-16T06:02:19.147Z,97984.64
2022-11-16T06:04:48.306Z,97985.84
2022-11-16T06:07:16.078Z,97981.53
2022-11-16T06:09:45.218Z,97980.17
2022-11-16T06:12:14.890Z,97980.01
2022-11-16T06:14:43.106Z,97978.71
2022-11-16T06:17:14.667Z,97978.27
2022-11-16T06:19:43.695Z,97978.14
2022-11-16T06:22:11.380Z,97975.05
2022-11-16T06:24:41.778Z,97972.02
2022-11-16T06:27:09.709Z,97968.92
2022-11-16T06:29:37.437Z,97972.90
2022-11-16T06:32:06.379Z,97979.73
2022-11-16T06:34:34.317Z,97978.16
2022-11-16T06:37:02.236Z,97983.52
2022-11-16T06:39:30.180Z,97983.97
2022-11-16T06:41:57.919Z,97984.09
2022-11-16T06:44:26.228Z,97985.22
2022-11-16T06:46:53.952Z,97989.43
2022-11-16T06:49:21.870Z,97988.89
2022-11-16T06:51:49.584Z,97982.65
2022-11-16T06:54:17.494Z,97980.71
2022-11-16T06:56:45.434Z,97980.82
2022-11-16T06:59:13.355Z,97976.89
2022-11-16T07:01:43.500Z,97968.65
2022-11-16T07:04:12.790Z,97967.86
2022-11-16T07:06:41.695Z,97969.02
2022-11-16T07:09:11.254Z,97970.52
2022-11-16T07:11:39.173Z,97965.67
2022-11-16T07:14:08.758Z,97962.38
2022-11-16T07:16:38.335Z,97958.38
2022-11-16T07:19:07.945Z,97958.86
2022-11-16T07:21:38.833Z,97957.51
2022-11-16T07:24:08.590Z,97955.92
2022-11-16T07:26:36.334Z,97951.04
2022-11-16T07:29:04.149Z,97949.89
2022-11-16T07:31:33.723Z,97951.63
2022-11-16T07:34:03.230Z,97944.45
2022-11-16T07:36:30.953Z,97942.52
2022-11-16T07:38:58.691Z,97939.69
2022-11-16T07:41:26.641Z,97938.43
2022-11-16T07:43:54.519Z,97940.20
2022-11-16T07:49:16.651Z,97935.77
2022-11-16T07:51:46.558Z,97937.48
2022-11-16T07:54:16.602Z,97936.61
2022-11-16T07:56:44.556Z,97936.77
2022-11-16T07:59:12.582Z,97938.86
2022-11-16T08:01:40.479Z,97935.98
2022-11-16T08:04:10.200Z,97938.30
2022-11-16T08:06:38.229Z,97938.75
2022-11-16T08:09:06.167Z,97938.45
2022-11-16T08:11:34.128Z,97935.52
2022-11-16T08:14:02.313Z,97934.33
2022-11-16T08:16:30.151Z,97930.42
2022-11-16T08:18:57.848Z,97931.40
2022-11-16T08:21:25.586Z,97928.73
2022-11-16T08:23:58.668Z,97928.73
2022-11-16T08:26:28.785Z,97928.98
2022-11-16T08:28:58.226Z,97927.04
2022-11-16T08:31:29.993Z,97929.09
2022-11-16T08:34:01.476Z,97932.13
2022-11-16T08:36:30.978Z,97930.96
2022-11-16T08:38:58.830Z,97931.27
2022-11-16T08:41:28.346Z,97932.91
2022-11-16T08:44:01.045Z,97927.70
2022-11-16T08:46:30.568Z,97931.20
2022-11-16T08:48:59.873Z,97931.22
2022-11-16T08:51:27.837Z,97929.39
2022-11-16T08:54:01.739Z,97932.69
2022-11-16T08:56:31.418Z,97929.13
2022-11-16T08:59:01.298Z,97929.33
2022-11-16T09:01:32.583Z,97928.98
2022-11-16T09:04:02.287Z,97928.95
2022-11-16T09:06:30.390Z,97930.47
2022-11-16T09:08:58.490Z,97932.58
2022-11-16T09:11:28.243Z,97933.33
2022-11-16T09:13:59.043Z,97932.04
2022-11-16T09:16:29.712Z,97927.92
2022-11-16T09:18:59.424Z,97923.90
2022-11-16T09:21:30.363Z,97915.61
2022-11-16T09:24:00.081Z,97910.62
2022-11-16T09:26:28.019Z,97906.57
2022-11-16T09:28:59.973Z,97904.94
2022-11-16T09:31:35.886Z,97906.55
2022-11-16T09:34:04.087Z,97906.41
2022-11-16T09:36:31.851Z,97906.05
2022-11-16T09:39:29.035Z,97905.89
2022-11-16T09:42:18.205Z,97900.24
2022-11-16T09:44:52.132Z,97899.02
2022-11-16T09:47:24.965Z,97903.88
2022-11-16T09:50:02.695Z,97902.75
2022-11-16T09:53:02.344Z,97901.83
2022-11-16T09:55:52.751Z,97897.44
2022-11-16T09:58:36.448Z,97892.09
2022-11-16T10:01:21.452Z,97888.16
2022-11-16T10:03:55.924Z,97885.27
2022-11-16T10:06:38.128Z,97880.05
2022-11-16T10:09:11.151Z,97873.63
2022-11-16T10:11:45.735Z,97870.91
2022-11-16T10:14:22.546Z,97866.17
2022-11-16T10:16:57.279Z,97863.98
2022-11-16T10:19:44.143Z,97859.29
2022-11-16T10:23:06.342Z,97854.16
2022-11-16T10:25:46.724Z,97854.89
2022-11-16T10:28:30.553Z,97855.48
2022-11-16T10:31:05.010Z,97851.61
2022-11-16T10:33:37.303Z,97853.13
2022-11-16T10:36:16.513Z,97853.39
2022-11-16T10:38:46.065Z,97852.95
2022-11-16T10:41:13.693Z,97852.62
2022-11-16T10:43:44.896Z,97853.11
2022-11-16T10:46:40.028Z,97853.45
2022-11-16T10:50:02.488Z,97853.35
2022-11-16T10:52:30.294Z,97849.69
2022-11-16T10:54:58.283Z,97845.80
2022-11-16T10:57:57.877Z,97848.55
2022-11-16T11:00:41.334Z,97842.30
2022-11-16T11:03:12.013Z,97840.84
2022-11-16T11:05:55.311Z,97840.89
2022-11-16T11:08:30.912Z,97840.17
2022-11-16T11:11:25.398Z,97838.52
2022-11-16T11:14:14.258Z,97835.98
2022-11-16T11:16:44.184Z,97835.80
2022-11-16T11:19:29.904Z,97833.56
2022-11-16T11:22:01.967Z,97834.70
2022-11-16T11:24:47.243Z,97838.70
2022-11-16T11:27:37.020Z,97834.15
2022-11-16T11:30:20.761Z,97835.48
2022-11-16T11:32:54.602Z,97828.85
2022-11-16T11:35:31.429Z,97829.10
2022-11-16T11:38:07.980Z,97829.65
2022-11-16T11:40:39.701Z,97831.98
2022-11-16T11:43:24.158Z,97825.46
2022-11-16T11:46:07.040Z,97824.24
2022-11-16T11:48:49.654Z,97824.08
2022-11-16T11:51:27.745Z,97825.64
2022-11-16T11:54:00.904Z,97823.19
2022-11-16T11:56:34.268Z,97825.67
2022-11-16T11:59:05.183Z,97823.65
2022-11-16T12:01:35.901Z,97820.58
2022-11-16T12:04:23.402Z,97818.95
2022-11-16T12:07:23.649Z,97816.91
2022-11-16T12:10:16.841Z,97816.95
2022-11-16T12:13:02.098Z,97817.88
2022-11-16T12:15:56.383Z,97814.83
2022-11-16T12:18:54.765Z,97811.30
2022-11-16T12:22:07.033Z,97811.35
2022-11-16T12:25:00.026Z,97803.91
2022-11-16T12:27:37.108Z,97806.89
2022-11-16T12:30:11.838Z,97802.98
2022-11-16T12:33:10.411Z,97803.77
2022-11-16T12:35:41.436Z,97801.38
2022-11-16T12:38:36.762Z,97803.26
2022-11-16T12:41:48.876Z,97801.14
2022-11-16T12:44:44.186Z,97804.76
2022-11-16T12:47:32.558Z,97808.09
2022-11-16T12:50:29.455Z,97807.80
2022-11-16T12:53:22.552Z,97810.84
2022-11-16T12:56:05.755Z,97810.31
2022-11-16T12:58:55.520Z,97805.77
2022-11-16T13:01:38.334Z,97805.00
2022-11-16T13:04:17.069Z,97805.13
2022-11-16T13:07:11.593Z,97803.19
2022-11-16T13:09:49.270Z,97800.52
2022-11-16T13:12:23.522Z,97806.11
2022-11-16T13:14:56.429Z,97801.84
2022-11-16T13:17:40.717Z,97802.75
2022-11-16T13:20:20.960Z,97801.02
2022-11-16T13:23:05.121Z,97806.04
2022-11-16T13:26:02.786Z,97805.71
2022-11-16T13:28:37.293Z,97807.11
2022-11-16T13:31:29.102Z,97806.36
2022-11-16T13:34:03.284Z,97802.83
2022-11-16T13:36:38.999Z,97801.24
2022-11-16T13:39:44.164Z,97801.82
2022-11-16T13:42:15.002Z,97803.06
2022-11-16T13:44:50.284Z,97800.25
2022-11-16T13:47:28.386Z,97796.84
2022-11-16T13:50:03.467Z,97796.61
2022-11-16T13:54:03.792Z,97801.20
2022-11-16T13:55:57.898Z,97801.00
2022-11-16T13:58:29.493Z,97795.49
2022-11-16T14:01:03.616Z,97799.09
2022-11-16T14:03:39.790Z,97799.17
2022-11-16T14:06:30.259Z,97793.59
2022-11-16T14:09:00.610Z,97797.17
2022-11-16T14:11:42.096Z,97794.54
2022-11-16T14:14:13.622Z,97793.86
2022-11-16T14:16:51.937Z,97793.90
2022-11-16T14:19:49.070Z,97787.88
2022-11-16T14:22:48.918Z,97788.05
2022-11-16T14:25:38.096Z,97784.63
2022-11-16T14:28:25.165Z,97789.24
2022-11-16T14:31:31.060Z,97788.23
2022-11-16T14:34:01.490Z,97784.16
2022-11-16T14:36:44.908Z,97786.27
2022-11-16T14:39:44.227Z,97789.38
2022-11-16T14:42:23.354Z,97789.60
2022-11-16T14:44:59.836Z,97794.84
2022-11-16T14:47:33.811Z,97791.73
2022-11-16T14:50:01.810Z,97793.16
2022-11-16T14:52:36.876Z,97790.52
2022-11-16T14:55:09.732Z,97789.43
2022-11-16T14:57:37.719Z,97787.01
2022-11-16T15:00:22.791Z,97792.73
2022-11-16T15:03:00.921Z,97791.41
2022-11-16T15:05:37.948Z,97783.77
2022-11-16T15:08:24.858Z,97782.35
2022-11-16T15:10:54.677Z,97781.39
2022-11-16T15:13:26.154Z,97780.86
2022-11-16T15:16:14.673Z,97783.98
2022-11-16T15:19:02.782Z,97786.89
2022-11-16T15:21:30.802Z,97788.71
2022-11-16T15:26:46.560Z,97785.59
2022-11-16T15:29:22.781Z,97786.77
2022-11-16T15:31:52.657Z,97789.02
2022-11-16T15:34:22.369Z,97793.08
2022-11-16T15:36:50.279Z,97792.41
2022-11-16T15:39:24.383Z,97785.89
2022-11-16T15:42:00.440Z,97788.77
2022-11-16T15:44:34.023Z,97787.41
2022-11-16T15:47:04.532Z,97784.50
2022-11-16T15:49:51.496Z,97789.88
2022-11-16T15:52:51.031Z,97787.63
2022-11-16T15:55:35.916Z,97788.42
2022-11-16T15:58:15.060Z,97787.63
2022-11-16T16:00:48.510Z,97785.30
2022-11-16T16:03:28.297Z,97788.51
2022-11-16T16:05:58.263Z,97793.13
2022-11-16T16:08:32.393Z,97793.48
2022-11-16T16:11:28.763Z,97795.86
2022-11-16T16:14:03.678Z,97793.84
2022-11-16T16:16:41.500Z,97789.15
2022-11-16T16:19:37.768Z,97791.85
2022-11-16T16:22:23.300Z,97795.27
2022-11-16T16:24:51.099Z,97801.55
2022-11-16T16:27:26.800Z,97797.23
2022-11-16T16:29:58.349Z,97795.90
2022-11-16T16:32:30.418Z,97799.63
2022-11-16T16:35:02.376Z,97803.90
2022-11-16T16:37:33.810Z,97800.99
2022-11-16T16:40:03.426Z,97802.10
2022-11-16T16:42:31.426Z,97797.73
2022-11-16T16:45:02.325Z,97801.36
2022-11-16T16:47:32.910Z,97805.10
2022-11-16T16:50:00.974Z,97805.11
2022-11-16T16:52:30.411Z,97800.61
2022-11-16T16:54:59.951Z,97802.58
2022-11-16T16:57:27.690Z,97803.30
2022-11-16T16:59:55.560Z,97803.32
2022-11-16T17:02:27.357Z,97804.40
2022-11-16T17:04:55.619Z,97808.70
2022-11-16T17:07:23.866Z,97808.05
2022-11-16T17:09:53.189Z,97806.64
2022-11-16T17:12:20.934Z,97799.60
2022-11-16T17:14:53.783Z,97795.85
2022-11-16T17:17:27.157Z,97795.98
2022-11-16T17:19:55.107Z,97799.75
2022-11-16T17:22:23.177Z,97803.53
2022-11-16T17:24:51.212Z,97803.17
2022-11-16T17:27:19.308Z,97802.44
2022-11-16T17:29:47.023Z,97802.84
2022-11-16T17:32:17.798Z,97799.23
2022-11-16T17:34:45.515Z,97802.25
2022-11-16T17:37:15.553Z,97801.52
2022-11-16T17:39:43.249Z,97809.96
2022-11-16T17:42:11.208Z,97815.02
2022-11-16T17:44:39.150Z,97814.66
2022-11-16T17:47:09.239Z,97814.39
2022-11-16T17:49:37.212Z,97813.98
2022-11-16T17:52:05.160Z,97812.64
2022-11-16T17:54:33.196Z,97810.69
2022-11-16T17:57:00.990Z,97808.38
2022-11-16T17:59:30.023Z,97802.05
2022-11-16T18:01:58.331Z,97799.59
2022-11-16T18:04:26.128Z,97800.77
2022-11-16T18:06:54.365Z,97807.35
2022-11-16T18:09:25.908Z,97809.20
2022-11-16T18:11:56.334Z,97809.19
2022-11-16T18:14:24.334Z,97809.54
2022-11-16T18:16:52.300Z,97803.96
2022-11-16T18:19:22.126Z,97805.96
2022-11-16T18:21:50.209Z,97808.70
2022-11-16T18:24:18.088Z,97808.70
2022-11-16T18:26:47.586Z,97809.52
2022-11-16T18:29:20.266Z,97807.09
2022-11-16T18:31:48.326Z,97805.77
2022-11-16T18:34:18.541Z,97802.00
2022-11-16T18:36:50.081Z,97802.92
2022-11-16T18:39:19.707Z,97801.31
2022-11-16T18:41:54.548Z,97807.61
2022-11-16T18:44:23.145Z,97801.17
2022-11-16T18:46:51.107Z,97802.77
2022-11-16T18:49:18.915Z,97801.59
2022-11-16T18:51:46.647Z,97800.89
2022-11-16T18:54:14.431Z,97803.66
2022-11-16T18:56:42.120Z,97807.71
2022-11-16T18:59:10.106Z,97811.64
2022-11-16T19:01:38.013Z,97816.59
2022-11-16T19:04:07.935Z,97822.13
2022-11-16T19:06:35.813Z,97820.67
2022-11-16T19:09:07.916Z,97819.32
2022-11-16T19:11:37.830Z,97821.05
2022-11-16T19:14:08.259Z,97817.84
2022-11-16T19:16:43.397Z,97815.60
2022-11-16T19:19:16.715Z,97817.23
2022-11-16T19:21:44.657Z,97817.32
2022-11-16T19:24:12.436Z,97815.92
2022-11-16T19:26:40.414Z,97812.30
2022-11-16T19:29:10.035Z,97813.91
2022-11-16T19:31:37.918Z,97810.57
2022-11-16T19:34:13.098Z,97812.34
2022-11-16T19:36:40.945Z,97809.19
2022-11-16T19:39:10.573Z,97807.21
2022-11-16T19:41:38.491Z,97813.30
2022-11-16T19:44:06.261Z,97820.73
2022-11-16T19:46:34.631Z,97819.69
2022-11-16T19:49:04.614Z,97820.66
2022-11-16T19:51:34.657Z,97824.23
2022-11-16T19:54:03.343Z,97824.46
2022-11-16T19:56:33.472Z,97827.54
2022-11-16T19:59:01.758Z,97824.35
2022-11-16T20:01:32.987Z,97823.38
2022-11-16T20:04:03.692Z,97820.02
2022-11-16T20:06:35.199Z,97822.30
2022-11-16T20:09:16.313Z,97817.23
2022-11-16T20:11:44.118Z,97813.73
2022-11-16T20:14:12.142Z,97813.69
2022-11-16T20:16:46.379Z,97810.39
2022-11-16T20:19:16.292Z,97811.02
2022-11-16T20:21:45.104Z,97809.83
2022-11-16T20:24:16.465Z,97809.15
2022-11-16T20:26:48.132Z,97809.80
2022-11-16T20:29:19.263Z,97812.36
2022-11-16T20:31:49.638Z,97814.08
2022-11-16T20:34:23.771Z,97813.59
2022-11-16T20:36:51.555Z,97814.05
2022-11-16T20:39:21.426Z,97811.09
2022-11-16T20:41:51.209Z,97813.46
2022-11-16T20:44:22.538Z,97812.32
2022-11-16T20:46:52.745Z,97808.85
2022-11-16T20:49:21.129Z,97810.33
2022-11-16T20:51:52.372Z,97803.48
2022-11-16T20:54:20.148Z,97807.77
2022-11-16T20:56:52.575Z,97808.17
2022-11-16T20:59:20.503Z,97804.46
2022-11-16T21:01:54.082Z,97805.21
2022-11-16T21:04:21.974Z,97806.86
2022-11-16T21:06:49.826Z,97809.44
2022-11-16T21:09:24.111Z,97807.73
2022-11-16T21:12:10.591Z,97806.58
2022-11-16T21:14:38.449Z,97803.41
2022-11-16T21:17:06.479Z,97806.65
2022-11-16T21:19:34.290Z,97809.57
2022-11-16T21:22:02.183Z,97814.37
2022-11-16T21:24:32.433Z,97814.17
2022-11-16T21:27:00.549Z,97811.34
2022-11-16T21:29:28.690Z,97813.25
2022-11-16T21:31:56.411Z,97811.82
2022-11-16T21:34:26.284Z,97807.39
2022-11-16T21:36:54.056Z,97800.02
2022-11-16T21:39:21.876Z,97804.72
2022-11-16T21:41:49.586Z,97806.31
2022-11-16T21:44:17.517Z,97806.09
2022-11-16T21:46:45.247Z,97808.03
2022-11-16T21:49:13.060Z,97805.08
2022-11-16T21:51:40.791Z,97806.58
2022-11-16T21:54:08.559Z,97805.17
2022-11-16T21:56:36.305Z,97804.29
2022-11-16T21:59:04.045Z,97806.86
2022-11-16T22:01:51.821Z,97810.98
2022-11-16T22:04:38.479Z,97812.60
2022-11-16T22:07:25.048Z,97806.24
2022-11-16T22:09:54.138Z,97809.30
2022-11-16T22:12:22.133Z,97804.46
2022-11-16T22:14:50.134Z,97805.83
2022-11-16T22:17:18.328Z,97800.58
2022-11-16T22:19:46.143Z,97793.77
2022-11-16T22:22:14.092Z,97791.45
2022-11-16T22:24:41.934Z,97791.55
2022-11-16T22:27:09.812Z,97793.39
2022-11-16T22:29:37.631Z,97793.88
2022-11-16T22:32:05.705Z,97798.83
2022-11-16T22:34:33.519Z,97802.07
2022-11-16T22:37:01.412Z,97804.67
2022-11-16T22:39:29.336Z,97804.20
2022-11-16T22:41:57.237Z,97800.75
2022-11-16T22:44:25.062Z,97796.85
2022-11-16T22:46:52.900Z,97794.89
2022-11-16T22:49:20.980Z,97796.79
2022-11-16T22:51:48.753Z,97792.21
2022-11-16T22:54:18.453Z,97792.54
2022-11-16T22:56:46.301Z,97793.77
2022-11-16T22:59:16.097Z,97794.65
2022-11-16T23:01:43.904Z,97790.82
2022-11-16T23:04:11.817Z,97785.44
2022-11-16T23:06:39.892Z,97783.33
2022-11-16T23:09:07.696Z,97788.02
2022-11-16T23:11:54.597Z,97787.27
2022-11-16T23:14:41.256Z,97784.38
2022-11-16T23:17:09.343Z,97788.26
2022-11-16T23:19:55.801Z,97788.02
2022-11-16T23:22:42.536Z,97783.51
2022-11-16T23:25:32.476Z,97778.94
2022-11-16T23:28:17.831Z,97779.65
2022-11-16T23:30:45.928Z,97785.30
2022-11-16T23:33:15.610Z,97784.05
2022-11-16T23:35:43.616Z,97779.28
2022-11-16T23:38:11.633Z,97778.18
2022-11-16T23:40:42.054Z,97773.41
2022-11-16T23:43:31.251Z,97775.58
2022-11-16T23:45:59.209Z,97777.86
2022-11-16T23:48:27.192Z,97775.70
2022-11-16T23:50:55.180Z,97769.99
2022-11-16T23:53:23.277Z,97771.96
2022-11-16T23:55:52.929Z,97773.30
2022-11-16T23:58:20.667Z,97773.05
